sensor_id;sensor_type;location;lat;lon;timestamp;P1;durP1;ratioP1;P2;durP2;ratioP2
6414;SDS011;3240;48.790;9.210;2023-02-13T00:01:47;27.90;;;13.40;;
6414;SDS011;3240;48.790;9.210;2023-02-13T00:04:15;22.87;;;12.10;;
6414;SDS011;3240;48.790;9.210;2023-02-13T00:06:43;23.30;;;12.03;;
6414;SDS011;3240;48.790;9.210;2023-02-13T00:09:12;23.73;;;12.20;;
6414;SDS011;3240;48.790;9.210;2023-02-13T00:11:40;23.43;;;13.37;;
6414;SDS011;3240;48.790;9.210;2023-02-13T00:14:09;20.50;;;11.67;;
6414;SDS011;3240;48.790;9.210;2023-02-13T00:16:37;25.00;;;12.60;;
6414;SDS011;3240;48.790;9.210;2023-02-13T00:19:05;24.30;;;13.00;;
6414;SDS011;3240;48.790;9.210;2023-02-13T00:21:33;21.13;;;11.87;;
6414;SDS011;3240;48.790;9.210;2023-02-13T00:24:02;27.83;;;13.20;;
6414;SDS011;3240;48.790;9.210;2023-02-13T00:26:30;20.07;;;11.20;;
6414;SDS011;3240;48.790;9.210;2023-02-13T00:28:59;23.87;;;12.20;;
6414;SDS011;3240;48.790;9.210;2023-02-13T00:31:27;27.10;;;12.77;;
6414;SDS011;3240;48.790;9.210;2023-02-13T00:33:55;21.13;;;12.40;;
6414;SDS011;3240;48.790;9.210;2023-02-13T00:36:24;25.77;;;11.73;;
6414;SDS011;3240;48.790;9.210;2023-02-13T00:38:52;22.73;;;11.80;;
6414;SDS011;3240;48.790;9.210;2023-02-13T00:41:20;25.90;;;13.13;;
6414;SDS011;3240;48.790;9.210;2023-02-13T00:43:49;21.70;;;12.80;;
6414;SDS011;3240;48.790;9.210;2023-02-13T00:46:17;24.40;;;13.80;;
6414;SDS011;3240;48.790;9.210;2023-02-13T00:48:45;26.53;;;12.93;;
6414;SDS011;3240;48.790;9.210;2023-02-13T00:51:14;22.10;;;11.80;;
6414;SDS011;3240;48.790;9.210;2023-02-13T00:53:42;26.43;;;12.57;;
6414;SDS011;3240;48.790;9.210;2023-02-13T00:56:10;22.80;;;12.70;;
6414;SDS011;3240;48.790;9.210;2023-02-13T00:58:39;30.70;;;14.13;;
6414;SDS011;3240;48.790;9.210;2023-02-13T01:01:07;25.57;;;12.97;;
6414;SDS011;3240;48.790;9.210;2023-02-13T01:03:35;23.85;;;14.65;;
6414;SDS011;3240;48.790;9.210;2023-02-13T01:06:04;24.80;;;13.63;;
6414;SDS011;3240;48.790;9.210;2023-02-13T01:08:32;22.70;;;11.57;;
6414;SDS011;3240;48.790;9.210;2023-02-13T01:11:01;21.37;;;12.43;;
6414;SDS011;3240;48.790;9.210;2023-02-13T01:13:29;23.87;;;12.40;;
6414;SDS011;3240;48.790;9.210;2023-02-13T01:15:57;24.20;;;12.97;;
6414;SDS011;3240;48.790;9.210;2023-02-13T01:18:26;29.00;;;12.30;;
6414;SDS011;3240;48.790;9.210;2023-02-13T01:20:56;22.90;;;10.80;;
6414;SDS011;3240;48.790;9.210;2023-02-13T01:23:23;19.97;;;11.47;;
6414;SDS011;3240;48.790;9.210;2023-02-13T01:25:51;22.37;;;11.83;;
6414;SDS011;3240;48.790;9.210;2023-02-13T01:28:20;29.23;;;13.37;;
6414;SDS011;3240;48.790;9.210;2023-02-13T01:30:53;21.20;;;11.80;;
6414;SDS011;3240;48.790;9.210;2023-02-13T01:33:21;26.93;;;12.70;;
6414;SDS011;3240;48.790;9.210;2023-02-13T01:35:49;23.63;;;11.77;;
6414;SDS011;3240;48.790;9.210;2023-02-13T01:38:17;25.30;;;13.23;;
6414;SDS011;3240;48.790;9.210;2023-02-13T01:40:46;29.67;;;14.10;;
6414;SDS011;3240;48.790;9.210;2023-02-13T01:43:14;26.57;;;13.00;;
6414;SDS011;3240;48.790;9.210;2023-02-13T01:45:43;25.23;;;11.83;;
6414;SDS011;3240;48.790;9.210;2023-02-13T01:48:12;28.13;;;13.57;;
6414;SDS011;3240;48.790;9.210;2023-02-13T01:50:41;32.13;;;14.30;;
6414;SDS011;3240;48.790;9.210;2023-02-13T01:53:09;28.03;;;12.93;;
6414;SDS011;3240;48.790;9.210;2023-02-13T01:55:38;29.10;;;12.83;;
6414;SDS011;3240;48.790;9.210;2023-02-13T01:58:06;30.23;;;13.50;;
6414;SDS011;3240;48.790;9.210;2023-02-13T02:00:33;26.67;;;13.33;;
6414;SDS011;3240;48.790;9.210;2023-02-13T02:03:03;27.30;;;13.13;;
6414;SDS011;3240;48.790;9.210;2023-02-13T02:05:29;23.33;;;12.47;;
6414;SDS011;3240;48.790;9.210;2023-02-13T02:07:58;26.63;;;12.83;;
6414;SDS011;3240;48.790;9.210;2023-02-13T02:10:26;24.67;;;12.50;;
6414;SDS011;3240;48.790;9.210;2023-02-13T02:13:00;28.40;;;13.80;;
6414;SDS011;3240;48.790;9.210;2023-02-13T02:15:26;27.67;;;13.47;;
6414;SDS011;3240;48.790;9.210;2023-02-13T02:17:54;28.10;;;13.50;;
6414;SDS011;3240;48.790;9.210;2023-02-13T02:20:25;26.30;;;13.20;;
6414;SDS011;3240;48.790;9.210;2023-02-13T02:23:02;29.73;;;15.50;;
6414;SDS011;3240;48.790;9.210;2023-02-13T02:25:32;28.03;;;14.53;;
6414;SDS011;3240;48.790;9.210;2023-02-13T02:30:55;30.70;;;13.90;;
6414;SDS011;3240;48.790;9.210;2023-02-13T02:33:20;30.03;;;13.80;;
6414;SDS011;3240;48.790;9.210;2023-02-13T02:35:54;26.40;;;14.60;;
6414;SDS011;3240;48.790;9.210;2023-02-13T02:38:29;24.20;;;12.70;;
6414;SDS011;3240;48.790;9.210;2023-02-13T02:43:34;29.60;;;14.17;;
6414;SDS011;3240;48.790;9.210;2023-02-13T02:46:06;30.13;;;13.80;;
6414;SDS011;3240;48.790;9.210;2023-02-13T02:48:31;29.37;;;15.23;;
6414;SDS011;3240;48.790;9.210;2023-02-13T02:51:09;28.20;;;13.77;;
6414;SDS011;3240;48.790;9.210;2023-02-13T02:53:46;31.53;;;14.03;;
6414;SDS011;3240;48.790;9.210;2023-02-13T02:56:17;28.93;;;13.83;;
6414;SDS011;3240;48.790;9.210;2023-02-13T02:58:45;30.40;;;14.30;;
6414;SDS011;3240;48.790;9.210;2023-02-13T03:01:19;25.47;;;14.37;;
6414;SDS011;3240;48.790;9.210;2023-02-13T03:03:53;28.80;;;13.77;;
6414;SDS011;3240;48.790;9.210;2023-02-13T03:06:29;29.57;;;14.87;;
6414;SDS011;3240;48.790;9.210;2023-02-13T03:08:56;27.50;;;13.20;;
6414;SDS011;3240;48.790;9.210;2023-02-13T03:11:43;31.97;;;15.50;;
6414;SDS011;3240;48.790;9.210;2023-02-13T03:14:18;30.03;;;15.17;;
6414;SDS011;3240;48.790;9.210;2023-02-13T03:16:46;30.23;;;14.83;;
6414;SDS011;3240;48.790;9.210;2023-02-13T03:19:24;33.80;;;14.00;;
6414;SDS011;3240;48.790;9.210;2023-02-13T03:21:58;28.80;;;14.47;;
6414;SDS011;3240;48.790;9.210;2023-02-13T03:24:36;29.27;;;14.13;;
6414;SDS011;3240;48.790;9.210;2023-02-13T03:27:05;27.70;;;13.60;;
6414;SDS011;3240;48.790;9.210;2023-02-13T03:29:36;26.87;;;13.87;;
6414;SDS011;3240;48.790;9.210;2023-02-13T03:32:08;27.43;;;14.70;;
6414;SDS011;3240;48.790;9.210;2023-02-13T03:34:36;27.43;;;14.17;;
6414;SDS011;3240;48.790;9.210;2023-02-13T03:37:09;32.17;;;15.00;;
6414;SDS011;3240;48.790;9.210;2023-02-13T03:39:44;32.77;;;14.70;;
6414;SDS011;3240;48.790;9.210;2023-02-13T03:42:17;32.10;;;14.47;;
6414;SDS011;3240;48.790;9.210;2023-02-13T03:44:45;29.13;;;13.80;;
6414;SDS011;3240;48.790;9.210;2023-02-13T03:47:11;32.83;;;14.60;;
6414;SDS011;3240;48.790;9.210;2023-02-13T03:49:42;29.33;;;14.07;;
6414;SDS011;3240;48.790;9.210;2023-02-13T03:52:18;38.70;;;15.27;;
6414;SDS011;3240;48.790;9.210;2023-02-13T03:54:46;30.93;;;14.80;;
6414;SDS011;3240;48.790;9.210;2023-02-13T03:57:19;30.73;;;15.03;;
6414;SDS011;3240;48.790;9.210;2023-02-13T03:59:53;39.60;;;14.57;;
6414;SDS011;3240;48.790;9.210;2023-02-13T04:02:23;32.80;;;14.57;;
6414;SDS011;3240;48.790;9.210;2023-02-13T04:04:51;31.40;;;14.63;;
6414;SDS011;3240;48.790;9.210;2023-02-13T04:07:18;26.27;;;13.90;;
6414;SDS011;3240;48.790;9.210;2023-02-13T04:09:52;29.17;;;14.43;;
6414;SDS011;3240;48.790;9.210;2023-02-13T04:12:23;33.93;;;15.93;;
6414;SDS011;3240;48.790;9.210;2023-02-13T04:14:52;33.73;;;14.77;;
6414;SDS011;3240;48.790;9.210;2023-02-13T04:17:20;29.70;;;14.40;;
6414;SDS011;3240;48.790;9.210;2023-02-13T04:19:46;28.77;;;13.60;;
6414;SDS011;3240;48.790;9.210;2023-02-13T04:22:14;27.30;;;13.43;;
6414;SDS011;3240;48.790;9.210;2023-02-13T04:24:42;22.60;;;12.53;;
6414;SDS011;3240;48.790;9.210;2023-02-13T04:27:12;31.13;;;16.17;;
6414;SDS011;3240;48.790;9.210;2023-02-13T04:29:39;29.37;;;14.07;;
6414;SDS011;3240;48.790;9.210;2023-02-13T04:32:08;30.33;;;15.57;;
6414;SDS011;3240;48.790;9.210;2023-02-13T04:34:36;35.23;;;13.63;;
6414;SDS011;3240;48.790;9.210;2023-02-13T04:37:04;26.40;;;13.57;;
6414;SDS011;3240;48.790;9.210;2023-02-13T04:39:32;28.27;;;13.87;;
6414;SDS011;3240;48.790;9.210;2023-02-13T04:42:00;28.30;;;14.23;;
6414;SDS011;3240;48.790;9.210;2023-02-13T04:44:29;32.00;;;13.17;;
6414;SDS011;3240;48.790;9.210;2023-02-13T04:46:57;23.80;;;12.20;;
6414;SDS011;3240;48.790;9.210;2023-02-13T04:49:25;32.57;;;13.80;;
6414;SDS011;3240;48.790;9.210;2023-02-13T04:51:54;25.90;;;13.63;;
6414;SDS011;3240;48.790;9.210;2023-02-13T04:54:22;27.17;;;13.30;;
6414;SDS011;3240;48.790;9.210;2023-02-13T04:56:50;29.80;;;14.37;;
6414;SDS011;3240;48.790;9.210;2023-02-13T04:59:19;25.50;;;13.43;;
6414;SDS011;3240;48.790;9.210;2023-02-13T05:01:47;25.50;;;13.43;;
6414;SDS011;3240;48.790;9.210;2023-02-13T05:04:15;25.77;;;12.77;;
6414;SDS011;3240;48.790;9.210;2023-02-13T05:06:44;30.47;;;14.20;;
6414;SDS011;3240;48.790;9.210;2023-02-13T05:09:12;27.97;;;13.40;;
6414;SDS011;3240;48.790;9.210;2023-02-13T05:11:40;27.33;;;13.67;;
6414;SDS011;3240;48.790;9.210;2023-02-13T05:14:09;27.37;;;12.40;;
6414;SDS011;3240;48.790;9.210;2023-02-13T05:16:37;24.17;;;12.40;;
6414;SDS011;3240;48.790;9.210;2023-02-13T05:19:05;30.60;;;13.40;;
6414;SDS011;3240;48.790;9.210;2023-02-13T05:21:34;32.27;;;14.73;;
6414;SDS011;3240;48.790;9.210;2023-02-13T05:24:08;26.27;;;13.50;;
6414;SDS011;3240;48.790;9.210;2023-02-13T05:26:36;29.33;;;14.53;;
6414;SDS011;3240;48.790;9.210;2023-02-13T05:29:04;29.30;;;14.17;;
6414;SDS011;3240;48.790;9.210;2023-02-13T05:31:39;33.33;;;14.27;;
6414;SDS011;3240;48.790;9.210;2023-02-13T05:34:07;27.53;;;12.30;;
6414;SDS011;3240;48.790;9.210;2023-02-13T05:36:35;23.87;;;13.67;;
6414;SDS011;3240;48.790;9.210;2023-02-13T05:39:04;30.13;;;14.47;;
6414;SDS011;3240;48.790;9.210;2023-02-13T05:41:32;26.40;;;13.57;;
6414;SDS011;3240;48.790;9.210;2023-02-13T05:44:00;25.87;;;13.83;;
6414;SDS011;3240;48.790;9.210;2023-02-13T05:46:29;23.40;;;13.60;;
6414;SDS011;3240;48.790;9.210;2023-02-13T05:48:57;34.57;;;14.50;;
6414;SDS011;3240;48.790;9.210;2023-02-13T05:51:25;30.53;;;15.30;;
6414;SDS011;3240;48.790;9.210;2023-02-13T05:53:54;24.00;;;12.97;;
6414;SDS011;3240;48.790;9.210;2023-02-13T05:56:22;32.03;;;14.80;;
6414;SDS011;3240;48.790;9.210;2023-02-13T05:58:51;39.07;;;15.60;;
6414;SDS011;3240;48.790;9.210;2023-02-13T06:01:19;32.13;;;15.40;;
6414;SDS011;3240;48.790;9.210;2023-02-13T06:03:47;31.40;;;14.57;;
6414;SDS011;3240;48.790;9.210;2023-02-13T06:06:16;33.00;;;14.90;;
6414;SDS011;3240;48.790;9.210;2023-02-13T06:08:44;31.13;;;15.70;;
6414;SDS011;3240;48.790;9.210;2023-02-13T06:11:12;31.47;;;15.00;;
6414;SDS011;3240;48.790;9.210;2023-02-13T06:13:40;35.70;;;15.60;;
6414;SDS011;3240;48.790;9.210;2023-02-13T06:16:09;39.37;;;15.33;;
6414;SDS011;3240;48.790;9.210;2023-02-13T06:18:37;35.00;;;15.43;;
6414;SDS011;3240;48.790;9.210;2023-02-13T06:21:06;38.70;;;17.20;;
6414;SDS011;3240;48.790;9.210;2023-02-13T06:23:34;40.27;;;16.80;;
6414;SDS011;3240;48.790;9.210;2023-02-13T06:26:03;45.20;;;17.33;;
6414;SDS011;3240;48.790;9.210;2023-02-13T06:28:30;43.43;;;17.20;;
6414;SDS011;3240;48.790;9.210;2023-02-13T06:30:59;38.50;;;16.00;;
6414;SDS011;3240;48.790;9.210;2023-02-13T06:33:27;43.93;;;19.10;;
6414;SDS011;3240;48.790;9.210;2023-02-13T06:35:55;37.53;;;16.70;;
6414;SDS011;3240;48.790;9.210;2023-02-13T06:38:24;49.57;;;17.50;;
6414;SDS011;3240;48.790;9.210;2023-02-13T06:40:52;43.30;;;18.10;;
6414;SDS011;3240;48.790;9.210;2023-02-13T06:43:20;46.00;;;18.23;;
6414;SDS011;3240;48.790;9.210;2023-02-13T06:45:49;53.90;;;19.90;;
6414;SDS011;3240;48.790;9.210;2023-02-13T06:48:17;44.50;;;17.80;;
6414;SDS011;3240;48.790;9.210;2023-02-13T06:50:45;44.30;;;19.97;;
6414;SDS011;3240;48.790;9.210;2023-02-13T06:53:14;47.70;;;19.50;;
6414;SDS011;3240;48.790;9.210;2023-02-13T06:55:42;43.23;;;18.90;;
6414;SDS011;3240;48.790;9.210;2023-02-13T06:58:10;54.33;;;19.07;;
6414;SDS011;3240;48.790;9.210;2023-02-13T07:00:39;44.73;;;18.60;;
6414;SDS011;3240;48.790;9.210;2023-02-13T07:03:08;50.33;;;19.10;;
6414;SDS011;3240;48.790;9.210;2023-02-13T07:05:39;48.77;;;19.50;;
6414;SDS011;3240;48.790;9.210;2023-02-13T07:08:07;41.70;;;19.70;;
6414;SDS011;3240;48.790;9.210;2023-02-13T07:10:36;48.13;;;20.90;;
6414;SDS011;3240;48.790;9.210;2023-02-13T07:13:04;54.53;;;19.20;;
6414;SDS011;3240;48.790;9.210;2023-02-13T07:15:33;67.00;;;26.23;;
6414;SDS011;3240;48.790;9.210;2023-02-13T07:18:01;50.23;;;20.00;;
6414;SDS011;3240;48.790;9.210;2023-02-13T07:20:29;42.63;;;18.10;;
6414;SDS011;3240;48.790;9.210;2023-02-13T07:22:58;48.23;;;18.67;;
6414;SDS011;3240;48.790;9.210;2023-02-13T07:25:26;42.43;;;17.87;;
6414;SDS011;3240;48.790;9.210;2023-02-13T07:27:54;49.00;;;19.20;;
6414;SDS011;3240;48.790;9.210;2023-02-13T07:30:22;47.83;;;18.93;;
6414;SDS011;3240;48.790;9.210;2023-02-13T07:32:50;47.23;;;19.17;;
6414;SDS011;3240;48.790;9.210;2023-02-13T07:35:19;39.13;;;17.60;;
6414;SDS011;3240;48.790;9.210;2023-02-13T07:37:47;47.70;;;23.50;;
6414;SDS011;3240;48.790;9.210;2023-02-13T07:40:16;52.07;;;20.03;;
6414;SDS011;3240;48.790;9.210;2023-02-13T07:42:44;40.57;;;18.83;;
6414;SDS011;3240;48.790;9.210;2023-02-13T07:45:12;40.17;;;19.03;;
6414;SDS011;3240;48.790;9.210;2023-02-13T07:47:41;40.20;;;18.30;;
6414;SDS011;3240;48.790;9.210;2023-02-13T07:50:09;46.07;;;17.23;;
6414;SDS011;3240;48.790;9.210;2023-02-13T07:52:37;43.90;;;17.10;;
6414;SDS011;3240;48.790;9.210;2023-02-13T07:55:06;38.73;;;17.30;;
6414;SDS011;3240;48.790;9.210;2023-02-13T07:57:34;37.00;;;17.20;;
6414;SDS011;3240;48.790;9.210;2023-02-13T08:00:03;42.57;;;18.03;;
6414;SDS011;3240;48.790;9.210;2023-02-13T08:02:31;34.27;;;17.70;;
6414;SDS011;3240;48.790;9.210;2023-02-13T08:05:00;45.57;;;18.70;;
6414;SDS011;3240;48.790;9.210;2023-02-13T08:07:28;48.47;;;17.63;;
6414;SDS011;3240;48.790;9.210;2023-02-13T08:09:56;41.87;;;18.50;;
6414;SDS011;3240;48.790;9.210;2023-02-13T08:12:31;42.03;;;17.47;;
6414;SDS011;3240;48.790;9.210;2023-02-13T08:14:59;35.50;;;17.57;;
6414;SDS011;3240;48.790;9.210;2023-02-13T08:17:27;35.10;;;16.77;;
6414;SDS011;3240;48.790;9.210;2023-02-13T08:19:55;39.73;;;17.23;;
6414;SDS011;3240;48.790;9.210;2023-02-13T08:22:24;33.43;;;15.67;;
6414;SDS011;3240;48.790;9.210;2023-02-13T08:24:52;34.30;;;15.33;;
6414;SDS011;3240;48.790;9.210;2023-02-13T08:27:20;22.87;;;12.97;;
6414;SDS011;3240;48.790;9.210;2023-02-13T08:29:49;35.63;;;15.30;;
6414;SDS011;3240;48.790;9.210;2023-02-13T08:32:17;40.27;;;15.90;;
6414;SDS011;3240;48.790;9.210;2023-02-13T08:34:45;30.93;;;15.70;;
6414;SDS011;3240;48.790;9.210;2023-02-13T08:37:14;28.83;;;14.87;;
6414;SDS011;3240;48.790;9.210;2023-02-13T08:39:42;32.83;;;15.47;;
6414;SDS011;3240;48.790;9.210;2023-02-13T08:42:10;28.87;;;15.60;;
6414;SDS011;3240;48.790;9.210;2023-02-13T08:44:39;31.63;;;15.40;;
6414;SDS011;3240;48.790;9.210;2023-02-13T08:47:08;33.63;;;15.40;;
6414;SDS011;3240;48.790;9.210;2023-02-13T08:49:35;27.40;;;14.83;;
6414;SDS011;3240;48.790;9.210;2023-02-13T08:52:04;31.87;;;14.73;;
6414;SDS011;3240;48.790;9.210;2023-02-13T08:54:32;30.80;;;14.67;;
6414;SDS011;3240;48.790;9.210;2023-02-13T08:57:00;30.30;;;14.33;;
6414;SDS011;3240;48.790;9.210;2023-02-13T08:59:29;28.37;;;14.63;;
6414;SDS011;3240;48.790;9.210;2023-02-13T09:01:57;30.77;;;14.80;;
6414;SDS011;3240;48.790;9.210;2023-02-13T09:04:25;27.70;;;14.47;;
6414;SDS011;3240;48.790;9.210;2023-02-13T09:06:54;28.73;;;16.13;;
6414;SDS011;3240;48.790;9.210;2023-02-13T09:09:22;27.77;;;13.70;;
6414;SDS011;3240;48.790;9.210;2023-02-13T09:11:50;24.97;;;14.00;;
6414;SDS011;3240;48.790;9.210;2023-02-13T09:14:19;30.30;;;14.03;;
6414;SDS011;3240;48.790;9.210;2023-02-13T09:16:47;32.87;;;15.90;;
6414;SDS011;3240;48.790;9.210;2023-02-13T09:19:15;29.93;;;16.43;;
6414;SDS011;3240;48.790;9.210;2023-02-13T09:21:44;29.20;;;14.60;;
6414;SDS011;3240;48.790;9.210;2023-02-13T09:24:12;28.03;;;14.57;;
6414;SDS011;3240;48.790;9.210;2023-02-13T09:26:40;45.47;;;16.07;;
6414;SDS011;3240;48.790;9.210;2023-02-13T09:29:09;25.53;;;13.70;;
6414;SDS011;3240;48.790;9.210;2023-02-13T09:31:37;25.77;;;14.57;;
6414;SDS011;3240;48.790;9.210;2023-02-13T09:34:05;26.73;;;14.60;;
6414;SDS011;3240;48.790;9.210;2023-02-13T09:36:34;26.33;;;13.43;;
6414;SDS011;3240;48.790;9.210;2023-02-13T09:39:02;27.13;;;14.17;;
6414;SDS011;3240;48.790;9.210;2023-02-13T09:41:33;28.87;;;13.13;;
6414;SDS011;3240;48.790;9.210;2023-02-13T09:44:00;27.00;;;13.93;;
6414;SDS011;3240;48.790;9.210;2023-02-13T09:46:33;31.37;;;13.40;;
6414;SDS011;3240;48.790;9.210;2023-02-13T09:49:04;21.53;;;12.37;;
6414;SDS011;3240;48.790;9.210;2023-02-13T09:51:29;20.43;;;12.20;;
6414;SDS011;3240;48.790;9.210;2023-02-13T09:54:01;21.47;;;11.10;;
6414;SDS011;3240;48.790;9.210;2023-02-13T09:56:39;23.20;;;11.63;;
6414;SDS011;3240;48.790;9.210;2023-02-13T10:01:52;25.20;;;12.60;;
6414;SDS011;3240;48.790;9.210;2023-02-13T10:04:26;25.33;;;12.37;;
6414;SDS011;3240;48.790;9.210;2023-02-13T10:06:54;26.17;;;12.83;;
6414;SDS011;3240;48.790;9.210;2023-02-13T10:09:26;27.20;;;13.17;;
6414;SDS011;3240;48.790;9.210;2023-02-13T10:14:37;23.03;;;12.60;;
6414;SDS011;3240;48.790;9.210;2023-02-13T10:17:05;24.60;;;13.90;;
6414;SDS011;3240;48.790;9.210;2023-02-13T10:19:36;28.33;;;13.40;;
6414;SDS011;3240;48.790;9.210;2023-02-13T10:22:11;23.70;;;12.30;;
6414;SDS011;3240;48.790;9.210;2023-02-13T10:24:42;23.73;;;11.73;;
6414;SDS011;3240;48.790;9.210;2023-02-13T10:27:26;20.37;;;11.33;;
6414;SDS011;3240;48.790;9.210;2023-02-13T10:29:55;22.27;;;12.80;;
6414;SDS011;3240;48.790;9.210;2023-02-13T10:32:38;26.17;;;11.83;;
6414;SDS011;3240;48.790;9.210;2023-02-13T10:35:15;22.80;;;12.13;;
6414;SDS011;3240;48.790;9.210;2023-02-13T10:37:37;17.27;;;11.50;;
6414;SDS011;3240;48.790;9.210;2023-02-13T10:40:08;20.70;;;11.50;;
6414;SDS011;3240;48.790;9.210;2023-02-13T10:42:42;23.80;;;11.87;;
6414;SDS011;3240;48.790;9.210;2023-02-13T10:50:21;23.60;;;11.00;;
6414;SDS011;3240;48.790;9.210;2023-02-13T10:52:50;28.57;;;11.43;;
6414;SDS011;3240;48.790;9.210;2023-02-13T10:55:26;23.70;;;11.90;;
6414;SDS011;3240;48.790;9.210;2023-02-13T10:58:01;18.03;;;10.50;;
6414;SDS011;3240;48.790;9.210;2023-02-13T11:00:26;16.23;;;9.90;;
6414;SDS011;3240;48.790;9.210;2023-02-13T11:02:54;20.00;;;9.30;;
6414;SDS011;3240;48.790;9.210;2023-02-13T11:05:24;15.70;;;9.43;;
6414;SDS011;3240;48.790;9.210;2023-02-13T11:07:51;18.83;;;10.63;;
6414;SDS011;3240;48.790;9.210;2023-02-13T11:10:21;16.80;;;10.10;;
6414;SDS011;3240;48.790;9.210;2023-02-13T11:12:48;15.67;;;9.50;;
6414;SDS011;3240;48.790;9.210;2023-02-13T11:15:25;16.30;;;9.10;;
6414;SDS011;3240;48.790;9.210;2023-02-13T11:17:53;17.97;;;10.40;;
6414;SDS011;3240;48.790;9.210;2023-02-13T11:20:25;17.70;;;9.37;;
6414;SDS011;3240;48.790;9.210;2023-02-13T11:22:51;21.20;;;10.17;;
6414;SDS011;3240;48.790;9.210;2023-02-13T11:25:22;14.87;;;9.17;;
6414;SDS011;3240;48.790;9.210;2023-02-13T11:28:06;15.85;;;10.10;;
6414;SDS011;3240;48.790;9.210;2023-02-13T11:30:29;24.57;;;11.27;;
6414;SDS011;3240;48.790;9.210;2023-02-13T11:32:57;19.13;;;10.57;;
6414;SDS011;3240;48.790;9.210;2023-02-13T11:35:26;14.23;;;8.50;;
6414;SDS011;3240;48.790;9.210;2023-02-13T11:38:09;17.53;;;8.90;;
6414;SDS011;3240;48.790;9.210;2023-02-13T11:40:32;14.23;;;8.27;;
6414;SDS011;3240;48.790;9.210;2023-02-13T11:43:00;15.90;;;9.43;;
6414;SDS011;3240;48.790;9.210;2023-02-13T11:45:28;15.10;;;10.13;;
6414;SDS011;3240;48.790;9.210;2023-02-13T11:47:57;13.63;;;9.03;;
6414;SDS011;3240;48.790;9.210;2023-02-13T11:50:27;15.30;;;8.50;;
6414;SDS011;3240;48.790;9.210;2023-02-13T11:52:56;15.10;;;9.50;;
6414;SDS011;3240;48.790;9.210;2023-02-13T11:55:24;16.63;;;9.97;;
6414;SDS011;3240;48.790;9.210;2023-02-13T11:57:56;15.20;;;9.53;;
6414;SDS011;3240;48.790;9.210;2023-02-13T12:00:26;11.57;;;7.87;;
6414;SDS011;3240;48.790;9.210;2023-02-13T12:02:53;17.70;;;9.20;;
6414;SDS011;3240;48.790;9.210;2023-02-13T12:05:22;16.50;;;8.90;;
6414;SDS011;3240;48.790;9.210;2023-02-13T12:07:49;18.53;;;10.90;;
6414;SDS011;3240;48.790;9.210;2023-02-13T12:10:20;13.83;;;8.53;;
6414;SDS011;3240;48.790;9.210;2023-02-13T12:13:20;14.60;;;8.27;;
6414;SDS011;3240;48.790;9.210;2023-02-13T12:15:32;13.50;;;8.30;;
6414;SDS011;3240;48.790;9.210;2023-02-13T12:18:03;14.70;;;8.70;;
6414;SDS011;3240;48.790;9.210;2023-02-13T12:20:33;13.90;;;9.27;;
6414;SDS011;3240;48.790;9.210;2023-02-13T12:23:17;20.50;;;9.20;;
6414;SDS011;3240;48.790;9.210;2023-02-13T12:25:45;13.93;;;9.13;;
6414;SDS011;3240;48.790;9.210;2023-02-13T12:28:12;13.03;;;8.80;;
6414;SDS011;3240;48.790;9.210;2023-02-13T12:30:48;17.20;;;9.40;;
6414;SDS011;3240;48.790;9.210;2023-02-13T12:33:26;12.90;;;8.87;;
6414;SDS011;3240;48.790;9.210;2023-02-13T12:35:56;12.13;;;8.03;;
6414;SDS011;3240;48.790;9.210;2023-02-13T12:38:29;17.80;;;10.37;;
6414;SDS011;3240;48.790;9.210;2023-02-13T12:40:57;14.20;;;8.97;;
6414;SDS011;3240;48.790;9.210;2023-02-13T12:43:31;15.50;;;9.40;;
6414;SDS011;3240;48.790;9.210;2023-02-13T12:46:00;16.37;;;10.50;;
6414;SDS011;3240;48.790;9.210;2023-02-13T12:48:30;15.50;;;9.23;;
6414;SDS011;3240;48.790;9.210;2023-02-13T12:51:01;20.73;;;9.43;;
6414;SDS011;3240;48.790;9.210;2023-02-13T12:53:30;15.23;;;9.90;;
6414;SDS011;3240;48.790;9.210;2023-02-13T12:56:00;15.40;;;9.32;;
6414;SDS011;3240;48.790;9.210;2023-02-13T12:59:03;17.17;;;9.90;;
6414;SDS011;3240;48.790;9.210;2023-02-13T13:01:35;16.70;;;10.10;;
6414;SDS011;3240;48.790;9.210;2023-02-13T13:04:01;17.67;;;10.50;;
6414;SDS011;3240;48.790;9.210;2023-02-13T13:06:29;17.83;;;9.83;;
6414;SDS011;3240;48.790;9.210;2023-02-13T13:08:58;14.90;;;9.10;;
6414;SDS011;3240;48.790;9.210;2023-02-13T13:11:28;14.60;;;9.00;;
6414;SDS011;3240;48.790;9.210;2023-02-13T13:13:57;14.87;;;8.43;;
6414;SDS011;3240;48.790;9.210;2023-02-13T13:16:41;15.03;;;8.97;;
6414;SDS011;3240;48.790;9.210;2023-02-13T13:19:12;22.67;;;9.73;;
6414;SDS011;3240;48.790;9.210;2023-02-13T13:21:42;14.83;;;9.80;;
6414;SDS011;3240;48.790;9.210;2023-02-13T13:24:16;14.47;;;8.93;;
6414;SDS011;3240;48.790;9.210;2023-02-13T13:26:41;14.73;;;9.23;;
6414;SDS011;3240;48.790;9.210;2023-02-13T13:29:26;13.43;;;8.30;;
6414;SDS011;3240;48.790;9.210;2023-02-13T13:31:58;15.17;;;8.93;;
6414;SDS011;3240;48.790;9.210;2023-02-13T13:34:25;15.60;;;8.70;;
6414;SDS011;3240;48.790;9.210;2023-02-13T13:36:59;12.97;;;8.47;;
6414;SDS011;3240;48.790;9.210;2023-02-13T13:39:32;13.40;;;9.03;;
6414;SDS011;3240;48.790;9.210;2023-02-13T13:42:04;15.10;;;9.17;;
6414;SDS011;3240;48.790;9.210;2023-02-13T13:45:35;12.77;;;8.33;;
6414;SDS011;3240;48.790;9.210;2023-02-13T13:47:31;16.03;;;10.27;;
6414;SDS011;3240;48.790;9.210;2023-02-13T13:49:55;12.27;;;8.20;;
6414;SDS011;3240;48.790;9.210;2023-02-13T13:52:25;11.83;;;8.83;;
6414;SDS011;3240;48.790;9.210;2023-02-13T13:54:52;15.73;;;8.97;;
6414;SDS011;3240;48.790;9.210;2023-02-13T13:57:21;10.63;;;7.80;;
6414;SDS011;3240;48.790;9.210;2023-02-13T14:05:25;11.63;;;7.73;;
6414;SDS011;3240;48.790;9.210;2023-02-13T14:07:54;12.60;;;8.80;;
6414;SDS011;3240;48.790;9.210;2023-02-13T14:10:57;11.20;;;8.03;;
6414;SDS011;3240;48.790;9.210;2023-02-13T14:15:49;10.60;;;7.67;;
6414;SDS011;3240;48.790;9.210;2023-02-13T14:18:18;14.30;;;8.47;;
6414;SDS011;3240;48.790;9.210;2023-02-13T14:20:50;14.57;;;8.30;;
6414;SDS011;3240;48.790;9.210;2023-02-13T14:23:25;14.27;;;9.98;;
6414;SDS011;3240;48.790;9.210;2023-02-13T14:25:47;13.67;;;9.13;;
6414;SDS011;3240;48.790;9.210;2023-02-13T14:28:20;12.53;;;8.37;;
6414;SDS011;3240;48.790;9.210;2023-02-13T14:30:48;12.90;;;9.80;;
6414;SDS011;3240;48.790;9.210;2023-02-13T14:33:23;12.33;;;8.97;;
6414;SDS011;3240;48.790;9.210;2023-02-13T14:38:24;12.30;;;8.07;;
6414;SDS011;3240;48.790;9.210;2023-02-13T14:40:52;12.73;;;8.43;;
6414;SDS011;3240;48.790;9.210;2023-02-13T14:43:23;17.43;;;8.80;;
6414;SDS011;3240;48.790;9.210;2023-02-13T14:45:51;11.83;;;7.30;;
6414;SDS011;3240;48.790;9.210;2023-02-13T14:48:17;12.77;;;8.77;;
6414;SDS011;3240;48.790;9.210;2023-02-13T14:50:48;12.93;;;8.57;;
6414;SDS011;3240;48.790;9.210;2023-02-13T14:53:17;14.13;;;8.13;;
6414;SDS011;3240;48.790;9.210;2023-02-13T14:55:44;13.40;;;8.57;;
6414;SDS011;3240;48.790;9.210;2023-02-13T14:58:15;13.10;;;8.73;;
6414;SDS011;3240;48.790;9.210;2023-02-13T15:00:45;16.23;;;8.90;;
6414;SDS011;3240;48.790;9.210;2023-02-13T15:03:23;16.03;;;8.70;;
6414;SDS011;3240;48.790;9.210;2023-02-13T15:05:48;18.67;;;9.00;;
6414;SDS011;3240;48.790;9.210;2023-02-13T15:08:18;14.47;;;8.63;;
6414;SDS011;3240;48.790;9.210;2023-02-13T15:10:48;15.73;;;9.30;;
6414;SDS011;3240;48.790;9.210;2023-02-13T15:13:16;12.73;;;8.63;;
6414;SDS011;3240;48.790;9.210;2023-02-13T15:15:44;14.57;;;8.13;;
6414;SDS011;3240;48.790;9.210;2023-02-13T15:18:16;15.43;;;8.63;;
6414;SDS011;3240;48.790;9.210;2023-02-13T15:20:42;15.90;;;9.50;;
6414;SDS011;3240;48.790;9.210;2023-02-13T15:23:19;12.23;;;7.87;;
6414;SDS011;3240;48.790;9.210;2023-02-13T15:25:46;12.23;;;7.67;;
6414;SDS011;3240;48.790;9.210;2023-02-13T15:28:18;12.73;;;7.60;;
6414;SDS011;3240;48.790;9.210;2023-02-13T15:30:53;12.93;;;7.87;;
6414;SDS011;3240;48.790;9.210;2023-02-13T15:33:22;12.47;;;7.57;;